sensor_id;sensor_type;location;lat;lon;timestamp;P1;durP1;ratioP1;P2;durP2;ratioP2
59492;SDS011;45497;43.996;22.876;2023-04-19T00:00:47;285.03;;;89.50;;
59492;SDS011;45497;43.996;22.876;2023-04-19T00:03:12;288.27;;;90.60;;
59492;SDS011;45497;43.996;22.876;2023-04-19T00:05:41;290.40;;;90.03;;
59492;SDS011;45497;43.996;22.876;2023-04-19T00:08:06;293.85;;;91.20;;
59492;SDS011;45497;43.996;22.876;2023-04-19T00:10:32;287.48;;;90.68;;
59492;SDS011;45497;43.996;22.876;2023-04-19T00:12:59;289.23;;;90.32;;
59492;SDS011;45497;43.996;22.876;2023-04-19T00:15:25;289.10;;;90.05;;
59492;SDS011;45497;43.996;22.876;2023-04-19T00:17:51;294.33;;;91.05;;
59492;SDS011;45497;43.996;22.876;2023-04-19T00:20:16;289.93;;;91.30;;
59492;SDS011;45497;43.996;22.876;2023-04-19T00:22:42;287.92;;;90.78;;
59492;SDS011;45497;43.996;22.876;2023-04-19T00:25:07;290.50;;;91.43;;
59492;SDS011;45497;43.996;22.876;2023-04-19T00:27:33;288.83;;;90.07;;
59492;SDS011;45497;43.996;22.876;2023-04-19T00:29:58;290.15;;;91.65;;
59492;SDS011;45497;43.996;22.876;2023-04-19T00:32:24;287.37;;;90.73;;
59492;SDS011;45497;43.996;22.876;2023-04-19T00:34:49;289.17;;;91.23;;
59492;SDS011;45497;43.996;22.876;2023-04-19T00:37:15;296.70;;;91.38;;
59492;SDS011;45497;43.996;22.876;2023-04-19T00:39:40;294.40;;;91.68;;
59492;SDS011;45497;43.996;22.876;2023-04-19T00:42:06;292.30;;;91.47;;
59492;SDS011;45497;43.996;22.876;2023-04-19T00:44:31;299.23;;;91.63;;
59492;SDS011;45497;43.996;22.876;2023-04-19T00:46:57;294.00;;;91.30;;
59492;SDS011;45497;43.996;22.876;2023-04-19T00:49:24;292.45;;;90.95;;
59492;SDS011;45497;43.996;22.876;2023-04-19T00:51:50;288.45;;;90.43;;
59492;SDS011;45497;43.996;22.876;2023-04-19T00:54:16;292.57;;;91.50;;
59492;SDS011;45497;43.996;22.876;2023-04-19T00:56:43;292.08;;;91.47;;
59492;SDS011;45497;43.996;22.876;2023-04-19T00:59:09;290.90;;;91.38;;
59492;SDS011;45497;43.996;22.876;2023-04-19T01:01:36;294.13;;;92.00;;
59492;SDS011;45497;43.996;22.876;2023-04-19T01:04:02;292.92;;;91.35;;
59492;SDS011;45497;43.996;22.876;2023-04-19T01:06:29;290.80;;;91.35;;
59492;SDS011;45497;43.996;22.876;2023-04-19T01:08:55;291.05;;;91.15;;
59492;SDS011;45497;43.996;22.876;2023-04-19T01:11:22;294.92;;;92.00;;
59492;SDS011;45497;43.996;22.876;2023-04-19T01:13:48;291.33;;;90.93;;
59492;SDS011;45497;43.996;22.876;2023-04-19T01:16:13;295.27;;;91.97;;
59492;SDS011;45497;43.996;22.876;2023-04-19T01:18:39;292.17;;;90.78;;
59492;SDS011;45497;43.996;22.876;2023-04-19T01:21:05;295.17;;;91.35;;
59492;SDS011;45497;43.996;22.876;2023-04-19T01:23:31;286.45;;;90.20;;
59492;SDS011;45497;43.996;22.876;2023-04-19T01:25:57;294.37;;;91.03;;
59492;SDS011;45497;43.996;22.876;2023-04-19T01:28:22;292.15;;;90.50;;
59492;SDS011;45497;43.996;22.876;2023-04-19T01:30:48;293.35;;;90.63;;
59492;SDS011;45497;43.996;22.876;2023-04-19T01:33:15;296.95;;;92.30;;
59492;SDS011;45497;43.996;22.876;2023-04-19T01:35:41;296.80;;;91.10;;
59492;SDS011;45497;43.996;22.876;2023-04-19T01:38:06;297.10;;;91.17;;
59492;SDS011;45497;43.996;22.876;2023-04-19T01:40:32;297.88;;;91.72;;
59492;SDS011;45497;43.996;22.876;2023-04-19T01:42:57;301.03;;;91.77;;
59492;SDS011;45497;43.996;22.876;2023-04-19T01:45:23;296.13;;;91.03;;
59492;SDS011;45497;43.996;22.876;2023-04-19T01:47:48;292.77;;;90.80;;
59492;SDS011;45497;43.996;22.876;2023-04-19T01:50:13;297.33;;;91.73;;
59492;SDS011;45497;43.996;22.876;2023-04-19T01:52:39;302.23;;;92.93;;
59492;SDS011;45497;43.996;22.876;2023-04-19T01:55:04;298.10;;;91.67;;
59492;SDS011;45497;43.996;22.876;2023-04-19T01:57:30;296.08;;;92.03;;
59492;SDS011;45497;43.996;22.876;2023-04-19T01:59:56;298.73;;;91.90;;
59492;SDS011;45497;43.996;22.876;2023-04-19T02:02:21;293.47;;;91.17;;
59492;SDS011;45497;43.996;22.876;2023-04-19T02:04:46;298.13;;;92.03;;
59492;SDS011;45497;43.996;22.876;2023-04-19T02:07:12;303.73;;;94.37;;
59492;SDS011;45497;43.996;22.876;2023-04-19T02:09:37;299.27;;;92.20;;
59492;SDS011;45497;43.996;22.876;2023-04-19T02:12:03;302.27;;;92.70;;
59492;SDS011;45497;43.996;22.876;2023-04-19T02:14:29;301.35;;;91.97;;
59492;SDS011;45497;43.996;22.876;2023-04-19T02:16:56;299.98;;;92.03;;
59492;SDS011;45497;43.996;22.876;2023-04-19T02:19:22;306.73;;;93.03;;
59492;SDS011;45497;43.996;22.876;2023-04-19T02:21:47;307.17;;;93.27;;
59492;SDS011;45497;43.996;22.876;2023-04-19T02:24:13;294.67;;;91.55;;
59492;SDS011;45497;43.996;22.876;2023-04-19T02:26:38;300.60;;;93.47;;
59492;SDS011;45497;43.996;22.876;2023-04-19T02:29:05;303.07;;;92.87;;
59492;SDS011;45497;43.996;22.876;2023-04-19T02:31:31;302.05;;;93.43;;
59492;SDS011;45497;43.996;22.876;2023-04-19T02:33:56;302.30;;;93.60;;
59492;SDS011;45497;43.996;22.876;2023-04-19T02:36:22;306.37;;;93.83;;
59492;SDS011;45497;43.996;22.876;2023-04-19T02:38:47;310.30;;;92.90;;
59492;SDS011;45497;43.996;22.876;2023-04-19T02:41:12;302.13;;;92.90;;
59492;SDS011;45497;43.996;22.876;2023-04-19T02:43:38;305.35;;;92.97;;
59492;SDS011;45497;43.996;22.876;2023-04-19T02:46:03;306.17;;;93.17;;
59492;SDS011;45497;43.996;22.876;2023-04-19T02:48:29;303.33;;;94.43;;
59492;SDS011;45497;43.996;22.876;2023-04-19T02:50:54;302.00;;;92.82;;
59492;SDS011;45497;43.996;22.876;2023-04-19T02:53:20;302.93;;;93.30;;
59492;SDS011;45497;43.996;22.876;2023-04-19T02:55:45;311.90;;;94.80;;
59492;SDS011;45497;43.996;22.876;2023-04-19T02:58:11;309.23;;;94.43;;
59492;SDS011;45497;43.996;22.876;2023-04-19T03:00:37;312.90;;;94.13;;
59492;SDS011;45497;43.996;22.876;2023-04-19T03:03:03;301.13;;;92.50;;
59492;SDS011;45497;43.996;22.876;2023-04-19T03:05:28;303.80;;;93.63;;
59492;SDS011;45497;43.996;22.876;2023-04-19T03:07:54;303.63;;;93.13;;
59492;SDS011;45497;43.996;22.876;2023-04-19T03:10:19;302.80;;;92.67;;
59492;SDS011;45497;43.996;22.876;2023-04-19T03:12:45;305.37;;;94.23;;
59492;SDS011;45497;43.996;22.876;2023-04-19T03:15:11;311.17;;;95.60;;
59492;SDS011;45497;43.996;22.876;2023-04-19T03:17:36;303.52;;;95.57;;
59492;SDS011;45497;43.996;22.876;2023-04-19T03:20:02;306.23;;;97.77;;
59492;SDS011;45497;43.996;22.876;2023-04-19T03:22:34;307.40;;;96.97;;
59492;SDS011;45497;43.996;22.876;2023-04-19T03:24:59;312.15;;;97.95;;
59492;SDS011;45497;43.996;22.876;2023-04-19T03:27:24;304.90;;;95.03;;
59492;SDS011;45497;43.996;22.876;2023-04-19T03:29:50;311.13;;;96.30;;
59492;SDS011;45497;43.996;22.876;2023-04-19T03:32:16;314.38;;;96.13;;
59492;SDS011;45497;43.996;22.876;2023-04-19T03:34:42;310.53;;;95.43;;
59492;SDS011;45497;43.996;22.876;2023-04-19T03:37:07;300.43;;;94.00;;
59492;SDS011;45497;43.996;22.876;2023-04-19T03:39:32;311.30;;;94.83;;
59492;SDS011;45497;43.996;22.876;2023-04-19T03:41:58;308.03;;;95.47;;
59492;SDS011;45497;43.996;22.876;2023-04-19T03:44:23;305.07;;;94.57;;
59492;SDS011;45497;43.996;22.876;2023-04-19T03:46:49;311.05;;;95.13;;
59492;SDS011;45497;43.996;22.876;2023-04-19T03:49:14;315.73;;;96.30;;
59492;SDS011;45497;43.996;22.876;2023-04-19T03:51:40;316.60;;;96.65;;
59492;SDS011;45497;43.996;22.876;2023-04-19T03:54:05;319.50;;;96.73;;
59492;SDS011;45497;43.996;22.876;2023-04-19T03:56:31;316.50;;;96.35;;
59492;SDS011;45497;43.996;22.876;2023-04-19T03:58:56;314.40;;;95.87;;
59492;SDS011;45497;43.996;22.876;2023-04-19T04:01:22;318.27;;;96.17;;
59492;SDS011;45497;43.996;22.876;2023-04-19T04:03:48;320.20;;;97.13;;
59492;SDS011;45497;43.996;22.876;2023-04-19T04:06:14;313.67;;;95.80;;
59492;SDS011;45497;43.996;22.876;2023-04-19T04:08:40;311.67;;;95.60;;
59492;SDS011;45497;43.996;22.876;2023-04-19T04:11:05;305.73;;;96.03;;
59492;SDS011;45497;43.996;22.876;2023-04-19T04:13:31;311.15;;;97.05;;
59492;SDS011;45497;43.996;22.876;2023-04-19T04:15:56;316.30;;;97.73;;
59492;SDS011;45497;43.996;22.876;2023-04-19T04:18:21;317.98;;;97.72;;
59492;SDS011;45497;43.996;22.876;2023-04-19T04:20:48;314.30;;;96.82;;
59492;SDS011;45497;43.996;22.876;2023-04-19T04:23:13;305.92;;;95.28;;
59492;SDS011;45497;43.996;22.876;2023-04-19T04:25:39;320.67;;;97.30;;
59492;SDS011;45497;43.996;22.876;2023-04-19T04:28:05;323.17;;;98.07;;
59492;SDS011;45497;43.996;22.876;2023-04-19T04:30:31;317.58;;;97.75;;
59492;SDS011;45497;43.996;22.876;2023-04-19T04:32:57;312.05;;;97.68;;
59492;SDS011;45497;43.996;22.876;2023-04-19T04:35:23;315.03;;;99.73;;
59492;SDS011;45497;43.996;22.876;2023-04-19T04:37:50;313.48;;;99.03;;
59492;SDS011;45497;43.996;22.876;2023-04-19T04:40:18;314.90;;;100.60;;
59492;SDS011;45497;43.996;22.876;2023-04-19T04:42:45;312.65;;;100.82;;
59492;SDS011;45497;43.996;22.876;2023-04-19T04:45:10;315.17;;;100.03;;
59492;SDS011;45497;43.996;22.876;2023-04-19T04:47:36;319.45;;;101.60;;
59492;SDS011;45497;43.996;22.876;2023-04-19T04:50:02;317.45;;;100.05;;
59492;SDS011;45497;43.996;22.876;2023-04-19T04:52:28;319.75;;;101.20;;
59492;SDS011;45497;43.996;22.876;2023-04-19T04:54:54;308.87;;;99.93;;
59492;SDS011;45497;43.996;22.876;2023-04-19T04:57:19;312.77;;;98.90;;
59492;SDS011;45497;43.996;22.876;2023-04-19T04:59:45;310.65;;;98.63;;
59492;SDS011;45497;43.996;22.876;2023-04-19T05:02:12;320.98;;;99.80;;
59492;SDS011;45497;43.996;22.876;2023-04-19T05:04:38;311.70;;;98.30;;
59492;SDS011;45497;43.996;22.876;2023-04-19T05:07:04;313.67;;;98.93;;
59492;SDS011;45497;43.996;22.876;2023-04-19T05:09:30;310.75;;;98.05;;
59492;SDS011;45497;43.996;22.876;2023-04-19T05:11:55;310.20;;;97.93;;
59492;SDS011;45497;43.996;22.876;2023-04-19T05:14:21;313.80;;;98.70;;
59492;SDS011;45497;43.996;22.876;2023-04-19T05:16:46;303.00;;;96.93;;
59492;SDS011;45497;43.996;22.876;2023-04-19T05:19:12;306.35;;;96.82;;
59492;SDS011;45497;43.996;22.876;2023-04-19T05:21:37;300.97;;;96.50;;
59492;SDS011;45497;43.996;22.876;2023-04-19T05:24:03;314.98;;;98.32;;
59492;SDS011;45497;43.996;22.876;2023-04-19T05:26:29;312.60;;;96.85;;
59492;SDS011;45497;43.996;22.876;2023-04-19T05:28:54;308.02;;;96.88;;
59492;SDS011;45497;43.996;22.876;2023-04-19T05:31:20;305.77;;;97.50;;
59492;SDS011;45497;43.996;22.876;2023-04-19T05:33:46;303.13;;;97.30;;
59492;SDS011;45497;43.996;22.876;2023-04-19T05:36:12;303.02;;;98.68;;
59492;SDS011;45497;43.996;22.876;2023-04-19T05:38:37;306.23;;;97.72;;
59492;SDS011;45497;43.996;22.876;2023-04-19T05:41:03;300.20;;;95.67;;
59492;SDS011;45497;43.996;22.876;2023-04-19T05:43:29;299.97;;;96.37;;
59492;SDS011;45497;43.996;22.876;2023-04-19T05:45:55;303.47;;;97.53;;
59492;SDS011;45497;43.996;22.876;2023-04-19T05:48:21;294.57;;;95.70;;
59492;SDS011;45497;43.996;22.876;2023-04-19T05:50:46;302.38;;;98.47;;
59492;SDS011;45497;43.996;22.876;2023-04-19T05:53:12;300.30;;;97.70;;
59492;SDS011;45497;43.996;22.876;2023-04-19T05:55:37;296.63;;;97.40;;
59492;SDS011;45497;43.996;22.876;2023-04-19T05:58:03;306.70;;;100.30;;
59492;SDS011;45497;43.996;22.876;2023-04-19T06:00:28;287.30;;;101.73;;
59492;SDS011;45497;43.996;22.876;2023-04-19T06:02:53;291.42;;;94.82;;
59492;SDS011;45497;43.996;22.876;2023-04-19T06:05:19;288.03;;;93.70;;
59492;SDS011;45497;43.996;22.876;2023-04-19T06:07:44;290.40;;;94.93;;
59492;SDS011;45497;43.996;22.876;2023-04-19T06:10:10;293.40;;;94.63;;
59492;SDS011;45497;43.996;22.876;2023-04-19T06:12:35;285.40;;;95.45;;
59492;SDS011;45497;43.996;22.876;2023-04-19T06:15:01;292.83;;;98.00;;
59492;SDS011;45497;43.996;22.876;2023-04-19T06:17:28;297.00;;;98.55;;
59492;SDS011;45497;43.996;22.876;2023-04-19T06:19:53;297.05;;;96.03;;
59492;SDS011;45497;43.996;22.876;2023-04-19T06:22:20;286.88;;;94.03;;
59492;SDS011;45497;43.996;22.876;2023-04-19T06:24:47;286.20;;;94.65;;
59492;SDS011;45497;43.996;22.876;2023-04-19T06:27:14;296.10;;;94.60;;
59492;SDS011;45497;43.996;22.876;2023-04-19T06:29:40;288.08;;;92.63;;
59492;SDS011;45497;43.996;22.876;2023-04-19T06:32:06;278.08;;;92.25;;
59492;SDS011;45497;43.996;22.876;2023-04-19T06:34:35;279.75;;;90.65;;
59492;SDS011;45497;43.996;22.876;2023-04-19T06:37:00;282.27;;;90.65;;
59492;SDS011;45497;43.996;22.876;2023-04-19T06:39:26;284.00;;;91.63;;
59492;SDS011;45497;43.996;22.876;2023-04-19T06:41:52;275.52;;;89.70;;
59492;SDS011;45497;43.996;22.876;2023-04-19T06:44:17;271.10;;;90.00;;
59492;SDS011;45497;43.996;22.876;2023-04-19T06:46:43;277.48;;;89.78;;
59492;SDS011;45497;43.996;22.876;2023-04-19T06:49:08;270.37;;;88.40;;
59492;SDS011;45497;43.996;22.876;2023-04-19T06:51:34;275.13;;;88.83;;
59492;SDS011;45497;43.996;22.876;2023-04-19T06:54:00;276.80;;;89.85;;
59492;SDS011;45497;43.996;22.876;2023-04-19T06:59:11;273.15;;;89.22;;
59492;SDS011;45497;43.996;22.876;2023-04-19T07:01:44;282.02;;;91.28;;
59492;SDS011;45497;43.996;22.876;2023-04-19T07:04:11;274.17;;;89.97;;
59492;SDS011;45497;43.996;22.876;2023-04-19T07:06:37;273.08;;;89.63;;
59492;SDS011;45497;43.996;22.876;2023-04-19T07:09:04;276.98;;;93.68;;
59492;SDS011;45497;43.996;22.876;2023-04-19T07:11:32;273.33;;;89.70;;
59492;SDS011;45497;43.996;22.876;2023-04-19T07:13:58;273.95;;;89.30;;
59492;SDS011;45497;43.996;22.876;2023-04-19T07:16:25;273.55;;;91.20;;
59492;SDS011;45497;43.996;22.876;2023-04-19T07:18:51;275.80;;;91.35;;
59492;SDS011;45497;43.996;22.876;2023-04-19T07:21:16;268.97;;;90.10;;
59492;SDS011;45497;43.996;22.876;2023-04-19T07:23:42;266.83;;;87.57;;
59492;SDS011;45497;43.996;22.876;2023-04-19T07:26:07;265.10;;;87.40;;
59492;SDS011;45497;43.996;22.876;2023-04-19T07:28:33;287.63;;;91.93;;
59492;SDS011;45497;43.996;22.876;2023-04-19T07:30:58;116.65;;;59.22;;
59492;SDS011;45497;43.996;22.876;2023-04-19T07:33:25;271.48;;;89.25;;
59492;SDS011;45497;43.996;22.876;2023-04-19T07:35:51;253.13;;;86.05;;
59492;SDS011;45497;43.996;22.876;2023-04-19T07:38:16;547.30;;;137.33;;
59492;SDS011;45497;43.996;22.876;2023-04-19T07:40:43;671.55;;;162.02;;
59492;SDS011;45497;43.996;22.876;2023-04-19T07:43:08;720.78;;;177.93;;
59492;SDS011;45497;43.996;22.876;2023-04-19T07:45:34;854.20;;;216.73;;
59492;SDS011;45497;43.996;22.876;2023-04-19T07:47:59;722.60;;;183.70;;
59492;SDS011;45497;43.996;22.876;2023-04-19T07:50:25;632.03;;;165.47;;
59492;SDS011;45497;43.996;22.876;2023-04-19T07:52:51;672.50;;;163.63;;
59492;SDS011;45497;43.996;22.876;2023-04-19T07:55:16;661.60;;;158.02;;
59492;SDS011;45497;43.996;22.876;2023-04-19T07:57:42;62.65;;;45.70;;
59492;SDS011;45497;43.996;22.876;2023-04-19T08:00:12;65.68;;;46.30;;
59492;SDS011;45497;43.996;22.876;2023-04-19T08:02:41;668.80;;;160.70;;
59492;SDS011;45497;43.996;22.876;2023-04-19T08:05:14;715.10;;;169.77;;
59492;SDS011;45497;43.996;22.876;2023-04-19T08:07:44;754.05;;;182.05;;
59492;SDS011;45497;43.996;22.876;2023-04-19T08:10:10;697.20;;;165.52;;
59492;SDS011;45497;43.996;22.876;2023-04-19T08:12:36;703.95;;;168.55;;
59492;SDS011;45497;43.996;22.876;2023-04-19T08:15:03;726.25;;;174.15;;
59492;SDS011;45497;43.996;22.876;2023-04-19T08:17:31;739.03;;;178.75;;
59492;SDS011;45497;43.996;22.876;2023-04-19T08:19:56;777.50;;;188.65;;
59492;SDS011;45497;43.996;22.876;2023-04-19T08:22:23;773.40;;;187.30;;
59492;SDS011;45497;43.996;22.876;2023-04-19T08:24:51;815.80;;;200.15;;
59492;SDS011;45497;43.996;22.876;2023-04-19T08:27:16;858.38;;;214.93;;
59492;SDS011;45497;43.996;22.876;2023-04-19T08:29:42;950.63;;;247.02;;
59492;SDS011;45497;43.996;22.876;2023-04-19T08:32:09;896.35;;;228.73;;
59492;SDS011;45497;43.996;22.876;2023-04-19T08:34:36;846.78;;;212.18;;
59492;SDS011;45497;43.996;22.876;2023-04-19T08:37:04;834.60;;;206.68;;
59492;SDS011;45497;43.996;22.876;2023-04-19T08:39:31;828.08;;;202.23;;
59492;SDS011;45497;43.996;22.876;2023-04-19T08:41:59;802.45;;;197.60;;
59492;SDS011;45497;43.996;22.876;2023-04-19T08:44:30;793.83;;;193.57;;
59492;SDS011;45497;43.996;22.876;2023-04-19T08:46:58;799.75;;;195.63;;
59492;SDS011;45497;43.996;22.876;2023-04-19T08:49:24;800.42;;;195.32;;
59492;SDS011;45497;43.996;22.876;2023-04-19T08:51:51;780.43;;;189.77;;
59492;SDS011;45497;43.996;22.876;2023-04-19T08:54:18;775.83;;;188.17;;
59492;SDS011;45497;43.996;22.876;2023-04-19T08:56:45;770.90;;;187.18;;
59492;SDS011;45497;43.996;22.876;2023-04-19T08:59:11;762.33;;;184.83;;
59492;SDS011;45497;43.996;22.876;2023-04-19T09:01:38;746.38;;;179.30;;
59492;SDS011;45497;43.996;22.876;2023-04-19T09:04:04;737.33;;;176.68;;
59492;SDS011;45497;43.996;22.876;2023-04-19T09:06:37;736.58;;;176.40;;
59492;SDS011;45497;43.996;22.876;2023-04-19T09:09:12;728.92;;;175.07;;
59492;SDS011;45497;43.996;22.876;2023-04-19T09:11:43;761.17;;;183.13;;
59492;SDS011;45497;43.996;22.876;2023-04-19T09:14:09;767.73;;;185.00;;
59492;SDS011;45497;43.996;22.876;2023-04-19T09:16:35;770.13;;;186.52;;
59492;SDS011;45497;43.996;22.876;2023-04-19T09:19:02;764.92;;;185.90;;
59492;SDS011;45497;43.996;22.876;2023-04-19T09:21:29;754.63;;;181.30;;
59492;SDS011;45497;43.996;22.876;2023-04-19T09:23:56;759.42;;;183.15;;
59492;SDS011;45497;43.996;22.876;2023-04-19T09:26:22;768.10;;;185.85;;
59492;SDS011;45497;43.996;22.876;2023-04-19T09:31:29;1022.00;;;273.60;;
59492;SDS011;45497;43.996;22.876;2023-04-19T09:34:13;954.03;;;248.35;;
59492;SDS011;45497;43.996;22.876;2023-04-19T09:36:40;952.97;;;248.13;;
59492;SDS011;45497;43.996;22.876;2023-04-19T09:39:06;951.07;;;245.93;;
59492;SDS011;45497;43.996;22.876;2023-04-19T09:41:33;962.97;;;250.65;;
59492;SDS011;45497;43.996;22.876;2023-04-19T09:44:09;972.50;;;255.30;;
59492;SDS011;45497;43.996;22.876;2023-04-19T09:46:35;970.08;;;253.60;;
59492;SDS011;45497;43.996;22.876;2023-04-19T09:51:44;963.03;;;250.88;;
59492;SDS011;45497;43.996;22.876;2023-04-19T09:54:12;968.97;;;253.20;;
59492;SDS011;45497;43.996;22.876;2023-04-19T09:56:39;951.30;;;245.73;;
59492;SDS011;45497;43.996;22.876;2023-04-19T09:59:05;940.40;;;241.68;;
59492;SDS011;45497;43.996;22.876;2023-04-19T10:01:34;938.57;;;241.90;;
59492;SDS011;45497;43.996;22.876;2023-04-19T10:04:10;933.30;;;241.20;;
59492;SDS011;45497;43.996;22.876;2023-04-19T10:06:39;940.72;;;243.75;;
59492;SDS011;45497;43.996;22.876;2023-04-19T10:09:05;942.03;;;244.45;;
59492;SDS011;45497;43.996;22.876;2023-04-19T10:11:36;944.60;;;244.23;;
59492;SDS011;45497;43.996;22.876;2023-04-19T10:14:06;941.70;;;243.27;;
59492;SDS011;45497;43.996;22.876;2023-04-19T10:16:33;944.33;;;245.45;;
59492;SDS011;45497;43.996;22.876;2023-04-19T10:19:21;942.97;;;243.07;;
59492;SDS011;45497;43.996;22.876;2023-04-19T10:21:48;934.13;;;241.48;;
59492;SDS011;45497;43.996;22.876;2023-04-19T10:24:15;901.53;;;230.45;;
59492;SDS011;45497;43.996;22.876;2023-04-19T10:32:41;953.60;;;248.88;;
59492;SDS011;45497;43.996;22.876;2023-04-19T10:43:15;894.05;;;227.55;;
59492;SDS011;45497;43.996;22.876;2023-04-19T10:45:42;875.35;;;220.90;;
59492;SDS011;45497;43.996;22.876;2023-04-19T10:50:57;859.40;;;215.38;;
59492;SDS011;45497;43.996;22.876;2023-04-19T10:53:43;867.13;;;218.45;;
59492;SDS011;45497;43.996;22.876;2023-04-19T10:56:10;866.90;;;218.18;;
59492;SDS011;45497;43.996;22.876;2023-04-19T10:59:10;873.67;;;221.38;;
59492;SDS011;45497;43.996;22.876;2023-04-19T11:01:46;872.90;;;221.38;;
59492;SDS011;45497;43.996;22.876;2023-04-19T11:04:16;877.40;;;222.80;;
59492;SDS011;45497;43.996;22.876;2023-04-19T11:07:08;875.80;;;222.63;;
59492;SDS011;45497;43.996;22.876;2023-04-19T11:17:16;894.65;;;229.63;;
59492;SDS011;45497;43.996;22.876;2023-04-19T11:19:53;908.67;;;233.18;;
59492;SDS011;45497;43.996;22.876;2023-04-19T11:22:40;903.88;;;231.98;;
59492;SDS011;45497;43.996;22.876;2023-04-19T11:27:36;910.20;;;235.45;;
59492;SDS011;45497;43.996;22.876;2023-04-19T11:32:35;922.90;;;239.35;;
59492;SDS011;45497;43.996;22.876;2023-04-19T11:35:07;915.53;;;235.40;;
59492;SDS011;45497;43.996;22.876;2023-04-19T11:37:34;920.30;;;238.32;;
59492;SDS011;45497;43.996;22.876;2023-04-19T11:40:01;896.43;;;229.43;;
59492;SDS011;45497;43.996;22.876;2023-04-19T11:42:31;893.95;;;228.32;;
59492;SDS011;45497;43.996;22.876;2023-04-19T11:44:57;906.38;;;233.02;;
59492;SDS011;45497;43.996;22.876;2023-04-19T11:47:24;911.88;;;236.65;;
59492;SDS011;45497;43.996;22.876;2023-04-19T11:49:50;909.83;;;234.10;;
59492;SDS011;45497;43.996;22.876;2023-04-19T11:52:20;930.47;;;242.67;;
59492;SDS011;45497;43.996;22.876;2023-04-19T11:54:49;929.20;;;242.57;;
59492;SDS011;45497;43.996;22.876;2023-04-19T11:57:27;928.47;;;242.20;;
59492;SDS011;45497;43.996;22.876;2023-04-19T12:00:01;926.15;;;254.25;;
59492;SDS011;45497;43.996;22.876;2023-04-19T12:02:41;973.42;;;261.17;;
59492;SDS011;45497;43.996;22.876;2023-04-19T12:05:12;966.30;;;257.23;;
59492;SDS011;45497;43.996;22.876;2023-04-19T12:10:24;990.60;;;268.13;;
59492;SDS011;45497;43.996;22.876;2023-04-19T12:12:49;1008.47;;;272.27;;
59492;SDS011;45497;43.996;22.876;2023-04-19T12:16:41;898.42;;;233.38;;
59492;SDS011;45497;43.996;22.876;2023-04-19T12:19:42;820.85;;;212.15;;
59492;SDS011;45497;43.996;22.876;2023-04-19T12:22:14;827.20;;;206.23;;
59492;SDS011;45497;43.996;22.876;2023-04-19T12:24:43;843.65;;;212.48;;
59492;SDS011;45497;43.996;22.876;2023-04-19T12:27:09;825.43;;;207.33;;
59492;SDS011;45497;43.996;22.876;2023-04-19T12:29:35;845.13;;;213.20;;
59492;SDS011;45497;43.996;22.876;2023-04-19T12:32:01;779.45;;;191.15;;
59492;SDS011;45497;43.996;22.876;2023-04-19T12:34:27;807.08;;;198.95;;
59492;SDS011;45497;43.996;22.876;2023-04-19T12:36:53;829.63;;;207.97;;
59492;SDS011;45497;43.996;22.876;2023-04-19T12:39:19;816.85;;;203.23;;
59492;SDS011;45497;43.996;22.876;2023-04-19T12:41:46;808.80;;;199.95;;
59492;SDS011;45497;43.996;22.876;2023-04-19T12:44:13;794.22;;;195.02;;
59492;SDS011;45497;43.996;22.876;2023-04-19T12:46:40;784.28;;;191.88;;
59492;SDS011;45497;43.996;22.876;2023-04-19T12:49:06;816.83;;;203.52;;
59492;SDS011;45497;43.996;22.876;2023-04-19T12:51:31;828.40;;;206.97;;
59492;SDS011;45497;43.996;22.876;2023-04-19T12:53:57;836.75;;;209.98;;
59492;SDS011;45497;43.996;22.876;2023-04-19T12:56:23;837.53;;;210.52;;
59492;SDS011;45497;43.996;22.876;2023-04-19T12:58:49;846.60;;;214.68;;
59492;SDS011;45497;43.996;22.876;2023-04-19T13:01:15;862.57;;;218.37;;
59492;SDS011;45497;43.996;22.876;2023-04-19T13:03:41;870.75;;;221.40;;
59492;SDS011;45497;43.996;22.876;2023-04-19T13:06:07;879.85;;;226.05;;
59492;SDS011;45497;43.996;22.876;2023-04-19T13:08:33;903.80;;;234.40;;
59492;SDS011;45497;43.996;22.876;2023-04-19T13:10:58;951.55;;;253.82;;
59492;SDS011;45497;43.996;22.876;2023-04-19T13:13:25;969.28;;;260.83;;
59492;SDS011;45497;43.996;22.876;2023-04-19T13:17:02;949.50;;;251.32;;
59492;SDS011;45497;43.996;22.876;2023-04-19T13:19:28;963.30;;;255.05;;
59492;SDS011;45497;43.996;22.876;2023-04-19T13:22:55;914.92;;;238.32;;
59492;SDS011;45497;43.996;22.876;2023-04-19T13:25:21;919.67;;;239.90;;
59492;SDS011;45497;43.996;22.876;2023-04-19T13:27:46;907.30;;;235.03;;
59492;SDS011;45497;43.996;22.876;2023-04-19T13:30:12;899.95;;;232.77;;
59492;SDS011;45497;43.996;22.876;2023-04-19T13:32:38;846.30;;;213.80;;
59492;SDS011;45497;43.996;22.876;2023-04-19T13:35:03;864.33;;;218.77;;
59492;SDS011;45497;43.996;22.876;2023-04-19T13:37:29;867.55;;;220.32;;
59492;SDS011;45497;43.996;22.876;2023-04-19T13:39:55;870.67;;;222.00;;
59492;SDS011;45497;43.996;22.876;2023-04-19T13:42:20;882.47;;;226.33;;
59492;SDS011;45497;43.996;22.876;2023-04-19T13:44:47;883.70;;;227.47;;
59492;SDS011;45497;43.996;22.876;2023-04-19T13:47:14;900.53;;;233.85;;
59492;SDS011;45497;43.996;22.876;2023-04-19T13:49:39;910.53;;;234.98;;
59492;SDS011;45497;43.996;22.876;2023-04-19T13:52:05;910.03;;;233.50;;
59492;SDS011;45497;43.996;22.876;2023-04-19T13:54:31;893.03;;;228.25;;
59492;SDS011;45497;43.996;22.876;2023-04-19T13:56:56;896.00;;;229.93;;
59492;SDS011;45497;43.996;22.876;2023-04-19T13:59:23;900.58;;;231.02;;
59492;SDS011;45497;43.996;22.876;2023-04-19T14:01:50;874.25;;;221.48;;
59492;SDS011;45497;43.996;22.876;2023-04-19T14:04:16;867.97;;;218.90;;
59492;SDS011;45497;43.996;22.876;2023-04-19T14:06:41;861.43;;;217.43;;
59492;SDS011;45497;43.996;22.876;2023-04-19T14:09:07;879.33;;;224.57;;
59492;SDS011;45497;43.996;22.876;2023-04-19T14:11:33;867.70;;;221.07;;
59492;SDS011;45497;43.996;22.876;2023-04-19T14:13:58;873.07;;;222.80;;
59492;SDS011;45497;43.996;22.876;2023-04-19T14:16:24;884.47;;;225.55;;
59492;SDS011;45497;43.996;22.876;2023-04-19T14:18:50;872.33;;;221.37;;
59492;SDS011;45497;43.996;22.876;2023-04-19T14:21:20;980.87;;;262.03;;
59492;SDS011;45497;43.996;22.876;2023-04-19T14:23:46;970.03;;;258.90;;
59492;SDS011;45497;43.996;22.876;2023-04-19T14:26:11;970.65;;;258.58;;
59492;SDS011;45497;43.996;22.876;2023-04-19T14:28:37;964.83;;;257.13;;
59492;SDS011;45497;43.996;22.876;2023-04-19T14:31:02;968.35;;;256.33;;
59492;SDS011;45497;43.996;22.876;2023-04-19T14:33:28;986.03;;;271.13;;